AAL144 KLAX-KLAS
Flight info
| Callsign | AAL144 |
|---|---|
| Flight time | N/A |
| Altitude | 29000 |
| Route | ORCKA5 MISEN RNDRZ4 |
| Aircraft | MD11/H-SDE1E2E3FGHIJ2J3J4J5M1RWXY/LB1D1 |
Departure
| Time | 2026-04-25 03:21 |
|---|---|
| Airport | Los Angeles International Airport (KLAX) |
Arrival
| Time | N/A |
|---|---|
| Airport | Harry Reid International Airport (KLAS) |
| Time | Latitude | Longitude | Altitude | Speed | Heading |
|---|---|---|---|---|---|
| 2026-04-25 02:46 | 33.94023 | -118.40929 | 100 ft | 0 kts | 264° |
| 2026-04-25 03:05 | 33.94025 | -118.40910 | 100 ft | 2 kts | 261° |
| 2026-04-25 03:05 | 33.94027 | -118.40891 | 101 ft | 2 kts | 258° |
| 2026-04-25 03:05 | 33.94031 | -118.40871 | 99 ft | 2 kts | 252° |
| 2026-04-25 03:05 | 33.94037 | -118.40853 | 98 ft | 2 kts | 239° |
| 2026-04-25 03:06 | 33.94047 | -118.40837 | 100 ft | 2 kts | 208° |
| 2026-04-25 03:06 | 33.94062 | -118.40832 | 100 ft | 2 kts | 175° |
| 2026-04-25 03:06 | 33.94068 | -118.40832 | 100 ft | 0 kts | 172° |
| 2026-04-25 03:12 | 33.94008 | -118.40823 | 101 ft | 3 kts | 172° |
| 2026-04-25 03:13 | 33.93995 | -118.40821 | 101 ft | 6 kts | 172° |
| 2026-04-25 03:13 | 33.93935 | -118.40804 | 101 ft | 12 kts | 158° |
| 2026-04-25 03:13 | 33.93858 | -118.40749 | 101 ft | 12 kts | 144° |
| 2026-04-25 03:13 | 33.93831 | -118.40681 | 103 ft | 8 kts | 106° |
| 2026-04-25 03:14 | 33.93821 | -118.40580 | 103 ft | 17 kts | 86° |
| 2026-04-25 03:14 | 33.93836 | -118.40437 | 104 ft | 17 kts | 83° |
| 2026-04-25 03:14 | 33.93850 | -118.40300 | 103 ft | 16 kts | 83° |
| 2026-04-25 03:14 | 33.93863 | -118.40167 | 106 ft | 16 kts | 83° |
| 2026-04-25 03:15 | 33.93876 | -118.40040 | 104 ft | 15 kts | 83° |
| 2026-04-25 03:15 | 33.93889 | -118.39916 | 103 ft | 15 kts | 83° |
| 2026-04-25 03:15 | 33.93902 | -118.39791 | 104 ft | 16 kts | 83° |
| 2026-04-25 03:15 | 33.93920 | -118.39612 | 102 ft | 24 kts | 83° |
| 2026-04-25 03:16 | 33.93940 | -118.39414 | 103 ft | 24 kts | 83° |
| 2026-04-25 03:16 | 33.93957 | -118.39245 | 101 ft | 18 kts | 83° |
| 2026-04-25 03:16 | 33.93971 | -118.39102 | 101 ft | 17 kts | 83° |
| 2026-04-25 03:16 | 33.93985 | -118.38965 | 102 ft | 16 kts | 83° |
| 2026-04-25 03:17 | 33.93998 | -118.38831 | 104 ft | 16 kts | 83° |
| 2026-04-25 03:17 | 33.94011 | -118.38702 | 105 ft | 15 kts | 83° |
| 2026-04-25 03:17 | 33.94023 | -118.38580 | 103 ft | 14 kts | 83° |
| 2026-04-25 03:17 | 33.94035 | -118.38464 | 104 ft | 14 kts | 83° |
| 2026-04-25 03:18 | 33.94041 | -118.38398 | 105 ft | 0 kts | 87° |
| 2026-04-25 03:18 | 33.94041 | -118.38396 | 104 ft | 0 kts | 87° |
| 2026-04-25 03:18 | 33.94041 | -118.38394 | 104 ft | 0 kts | 87° |
| 2026-04-25 03:19 | 33.94042 | -118.38382 | 105 ft | 4 kts | 84° |
| 2026-04-25 03:19 | 33.94049 | -118.38315 | 104 ft | 11 kts | 82° |
| 2026-04-25 03:19 | 33.94062 | -118.38199 | 102 ft | 17 kts | 82° |
| 2026-04-25 03:19 | 33.94045 | -118.38019 | 101 ft | 15 kts | 132° |
| 2026-04-25 03:20 | 33.93995 | -118.38006 | 102 ft | 6 kts | 197° |
| 2026-04-25 03:20 | 33.93962 | -118.38057 | 101 ft | 12 kts | 250° |
| 2026-04-25 03:20 | 33.93963 | -118.38151 | 104 ft | 7 kts | 277° |
| 2026-04-25 03:20 | 33.93962 | -118.38162 | 104 ft | 0 kts | 267° |
| 2026-04-25 03:21 | 33.93947 | -118.38364 | 106 ft | 81 kts | 264° |
| 2026-04-25 03:21 | 33.93823 | -118.39516 | 240 ft | 183 kts | 262° |
| 2026-04-25 03:21 | 33.93632 | -118.41114 | 1455 ft | 193 kts | 262° |
| 2026-04-25 03:22 | 33.93417 | -118.42606 | 2668 ft | 171 kts | 259° |
| 2026-04-25 03:22 | 33.93243 | -118.44029 | 3014 ft | 174 kts | 264° |
| 2026-04-25 03:22 | 33.93101 | -118.45451 | 3059 ft | 172 kts | 257° |
| 2026-04-25 03:22 | 33.92537 | -118.46642 | 3198 ft | 168 kts | 224° |
| 2026-04-25 03:23 | 33.91370 | -118.47452 | 3661 ft | 210 kts | 198° |